Dixfield, Maine
Current Conditions -  °F | °C
As of 9:15 AM on Monday 20 Oct 2014 (Local Time) from KLEW Reporting Station
Clear Clear  
Wind Chill: 36°   Ceiling: Unl
Heat Index: 41°   Visibility: 10mi
Dew Point: 21°   Wind: 7mph
Humidity: 45%   Direction: 280°W
Pressure: 29.97"   Gusts: NA
Location:  44.53°N, 70.45°W
Report Text: KLEW 201315Z AUTO 28006KT 10SM CLR 05/M06 A2997 RMK AO1
Loading
Personal Weather Stations






























Interactive Weather Map
Tropical Storm Tracking
New forecast layout! Learn more

10-Day Weather Forecast

Advertisements
Track Severe Weather on mobile